Time;durP1;ratioP1;P1;durP2;ratioP2;P2;SDS_P1;SDS_P2;PMS_P1;PMS_P2;Temp;Humidity;BMP_temperature;BMP_pressure;BME280_temperature;BME280_humidity;BME280_pressure;Samples;Min_cycle;Max_cycle;Signal;HPM_P1;HPM_P2
2024/02/09 00:02:20;;;;;;;;;;;;;;;16.57;45.82;100161.94;5017004;28;1040;-46
2024/02/09 00:04:46;;;;;;;;;;;;;;;17.16;46.08;100150.94;5017213;28;1914;-45
2024/02/09 00:07:11;;;;;;;;;;;;;;;18.06;44.38;100156.63;5029942;28;1095;-45
2024/02/09 00:09:37;;;;;;;;;;;;;;;16.97;46.34;100159.09;5017493;28;1078;-46
2024/02/09 00:12:03;;;;;;;;;;;;;;;16.69;46.26;100156.88;5017117;28;1008;-49
2024/02/09 00:14:28;;;;;;;;;;;;;;;16.82;46.45;100157.31;5022583;28;1039;-47
2024/02/09 00:16:54;;;;;;;;;;;;;;;17.41;45.83;100145.09;5036670;28;1130;-47
2024/02/09 00:19:19;;;;;;;;;;;;;;;16.86;46.11;100144.66;5017340;28;1151;-51
2024/02/09 00:21:45;;;;;;;;;;;;;;;16.47;46.02;100149.13;5029493;28;1139;-52
2024/02/09 00:24:11;;;;;;;;;;;;;;;16.46;45.95;100152.16;5019040;28;1906;-47
2024/02/09 00:26:36;;;;;;;;;;;;;;;18.13;44.44;100155.13;5035501;28;1048;-49
2024/02/09 00:29:03;;;;;;;;;;;;;;;17.02;46.43;100157.09;5017330;28;1054;-47
2024/02/09 00:31:28;;;;;;;;;;;;;;;16.62;46.19;100142.69;5016995;28;1131;-49
2024/02/09 00:33:54;;;;;;;;;;;;;;;18.06;44.46;100146.44;5029773;28;1441;-49
2024/02/09 00:36:21;;;;;;;;;;;;;;;17.17;46.07;100142.38;5016508;28;1150;-47
2024/02/09 00:38:47;;;;;;;;;;;;;;;16.68;46.51;100141.50;5015747;28;1090;-50
2024/02/09 00:41:16;;;;;;;;;;;;;;;16.62;45.67;100139.94;5017042;28;1084;-51
2024/02/09 00:43:42;;;;;;;;;;;;;;;17.15;46.15;100135.53;5023351;28;1941;-48
2024/02/09 00:46:08;;;;;;;;;;;;;;;17.72;45.14;100136.44;5022806;28;1062;-49
2024/02/09 00:48:34;;;;;;;;;;;;;;;16.81;46.56;100141.94;5029136;28;1001;-51
2024/02/09 00:50:59;;;;;;;;;;;;;;;16.64;46.09;100134.97;5016338;28;1212;-48
2024/02/09 00:53:24;;;;;;;;;;;;;;;16.45;45.83;100128.56;5036144;28;1100;-50
2024/02/09 00:55:50;;;;;;;;;;;;;;;17.87;45.26;100120.84;5023993;28;1059;-49
2024/02/09 00:58:18;;;;;;;;;;;;;;;17.31;45.85;100125.19;5016721;28;1103;-52
2024/02/09 01:00:43;;;;;;;;;;;;;;;16.81;46.09;100119.97;5015836;28;1032;-49
2024/02/09 01:03:10;;;;;;;;;;;;;;;17.81;45.31;100122.03;5016499;28;1969;-48
2024/02/09 01:05:35;;;;;;;;;;;;;;;17.30;45.94;100107.88;5029249;28;1466;-49
2024/02/09 01:08:04;;;;;;;;;;;;;;;16.78;46.30;100110.38;5022434;28;1087;-49
2024/02/09 01:10:32;;;;;;;;;;;;;;;16.74;45.32;100110.13;5036167;28;1152;-51
2024/02/09 02:45:42;;;;;;;;;;;;;;;17.44;45.67;100110.72;5029441;28;1163;-47
2024/02/09 03:04:47;;;;;;;;;;;;;;;16.45;44.96;100121.13;5024383;28;1977;-48
2024/02/09 03:07:13;;;;;;;;;;;;;;;18.08;44.28;100122.19;5024928;28;1137;-45
2024/02/09 03:09:38;;;;;;;;;;;;;;;17.26;46.05;100117.81;5031637;28;1033;-48
2024/02/09 03:12:04;;;;;;;;;;;;;;;16.80;46.28;100121.88;5031190;28;1164;-47
2024/02/09 03:14:30;;;;;;;;;;;;;;;16.67;45.83;100133.56;5018029;28;946;-47
2024/02/09 03:16:55;;;;;;;;;;;;;;;16.43;45.33;100126.91;5031366;28;1127;-48
2024/02/09 03:19:21;;;;;;;;;;;;;;;16.98;45.87;100120.34;5018709;28;1177;-48
2024/02/09 03:21:46;;;;;;;;;;;;;;;17.93;44.75;100123.22;5018194;28;1016;-46
2024/02/09 03:24:12;;;;;;;;;;;;;;;16.89;46.30;100131.16;5023513;28;1977;-47
2024/02/09 03:26:37;;;;;;;;;;;;;;;16.62;46.09;100134.44;5037661;28;1159;-50
2024/02/09 03:29:03;;;;;;;;;;;;;;;17.40;45.74;100134.41;5018221;28;1031;-46
2024/02/09 03:31:31;;;;;;;;;;;;;;;17.38;45.87;100140.19;5018277;28;1231;-49
2024/02/09 03:33:57;;;;;;;;;;;;;;;16.83;46.32;100147.94;5031251;28;1136;-46
2024/02/09 03:36:23;;;;;;;;;;;;;;;16.60;46.18;100144.88;5030579;28;1128;-48
2024/02/09 03:38:48;;;;;;;;;;;;;;;16.50;45.61;100148.53;5018199;28;1169;-49
2024/02/09 03:41:14;;;;;;;;;;;;;;;17.73;45.37;100140.84;5030323;28;1123;-47
2024/02/09 03:43:39;;;;;;;;;;;;;;;16.83;46.72;100148.78;5018101;28;1902;-48
2024/02/09 03:46:05;;;;;;;;;;;;;;;16.56;46.25;100141.91;5017941;28;1120;-50
2024/02/09 03:48:31;;;;;;;;;;;;;;;17.55;45.74;100141.66;5017386;28;1047;-49
2024/02/09 03:50:57;;;;;;;;;;;;;;;17.78;44.96;100146.28;5029549;28;1138;-51
2024/02/09 03:53:23;;;;;;;;;;;;;;;16.94;46.40;100149.50;5024302;28;1169;-50
2024/02/09 03:55:48;;;;;;;;;;;;;;;16.64;45.97;100151.44;5024545;28;1118;-47
2024/02/09 03:58:13;;;;;;;;;;;;;;;17.22;46.20;100144.25;5036159;28;1048;-46
2024/02/09 04:00:39;;;;;;;;;;;;;;;17.75;45.25;100146.88;5024841;28;1047;-50
2024/02/09 04:03:05;;;;;;;;;;;;;;;17.47;46.20;100137.63;5017226;28;2000;-50
2024/02/09 04:05:33;;;;;;;;;;;;;;;19.03;42.31;100129.34;5017263;28;1083;-48
2024/02/09 04:07:58;;;;;;;;;;;;;;;17.82;45.04;100123.66;5017053;28;1087;-50
2024/02/09 04:10:24;;;;;;;;;;;;;;;17.22;45.96;100125.00;5017519;28;1076;-48
2024/02/09 04:12:49;;;;;;;;;;;;;;;16.90;46.04;100137.47;5016760;28;1132;-48
2024/02/09 04:15:15;;;;;;;;;;;;;;;16.80;45.60;100126.56;5016561;28;1084;-47
2024/02/09 04:17:43;;;;;;;;;;;;;;;16.68;45.66;100124.22;5035963;28;1079;-50
2024/02/09 04:20:11;;;;;;;;;;;;;;;17.36;45.64;100120.47;5021432;28;1063;-48
2024/02/09 04:22:36;;;;;;;;;;;;;;;16.72;46.56;100128.84;5016880;28;1981;-56
2024/02/09 04:25:03;;;;;;;;;;;;;;;16.57;46.05;100123.50;5030305;28;1076;-52
2024/02/09 04:27:28;;;;;;;;;;;;;;;18.17;44.35;100121.50;5016391;28;896;-54
2024/02/09 04:29:54;;;;;;;;;;;;;;;17.40;45.83;100124.25;5019782;28;1047;-51
2024/02/09 04:32:20;;;;;;;;;;;;;;;16.84;46.67;100127.63;5016471;28;1406;-55
2024/02/09 04:34:45;;;;;;;;;;;;;;;16.73;46.16;100126.91;5028291;28;1112;-49
2024/02/09 04:37:11;;;;;;;;;;;;;;;16.39;46.54;100120.38;5017629;28;1055;-53
2024/02/09 04:39:37;;;;;;;;;;;;;;;17.99;44.98;100131.41;5016851;28;1011;-54
2024/02/09 04:42:02;;;;;;;;;;;;;;;16.93;46.58;100129.47;5016151;28;1225;-50
2024/02/09 04:44:28;;;;;;;;;;;;;;;17.93;45.01;100125.19;5016573;28;1910;-53
2024/02/09 04:46:53;;;;;;;;;;;;;;;17.72;44.91;100124.63;5018429;28;1990;-52
2024/02/09 04:49:20;;;;;;;;;;;;;;;17.00;46.32;100125.53;5027438;28;1844;-52
2024/02/09 04:51:46;;;;;;;;;;;;;;;16.92;45.51;100135.25;5017339;28;1896;-54
2024/02/09 04:54:12;;;;;;;;;;;;;;;16.77;45.54;100133.47;5018339;28;2067;-50
2024/02/09 04:56:37;;;;;;;;;;;;;;;18.04;44.53;100129.41;5018616;28;1974;-55
2024/02/09 04:59:10;;;;;;;;;;;;;;;17.06;46.29;100133.44;5016258;28;2104;-55
2024/02/09 05:01:39;;;;;;;;;;;;;;;16.75;46.12;100135.69;5028347;28;973;-51
2024/02/09 05:04:09;;;;;;;;;;;;;;;17.08;46.28;100136.72;5024358;28;2001;-51
2024/02/09 05:06:34;;;;;;;;;;;;;;;17.81;44.92;100144.88;5016501;28;1043;-54
2024/02/09 05:09:00;;;;;;;;;;;;;;;17.01;46.31;100155.50;5018087;28;1016;-51
2024/02/09 05:11:28;;;;;;;;;;;;;;;16.75;46.18;100147.47;5027423;28;1028;-50
2024/02/09 05:13:54;;;;;;;;;;;;;;;17.97;44.81;100142.72;5029021;28;1488;-50
2024/02/09 05:16:19;;;;;;;;;;;;;;;17.83;44.66;100150.06;5016073;28;892;-50
2024/02/09 05:18:47;;;;;;;;;;;;;;;17.34;45.89;100158.41;5028949;28;1096;-50
2024/02/09 05:21:12;;;;;;;;;;;;;;;17.16;46.27;100165.47;5018843;28;1497;-46
2024/02/09 05:23:41;;;;;;;;;;;;;;;16.91;46.79;100166.56;5016031;28;1979;-47
2024/02/09 05:26:07;;;;;;;;;;;;;;;16.74;47.13;100162.31;5035179;28;1024;-50
2024/02/09 05:28:39;;;;;;;;;;;;;;;16.60;47.59;100162.16;5031197;28;1972;-51
2024/02/09 05:31:05;;;;;;;;;;;;;;;16.43;47.67;100168.06;5019815;28;1052;-50
2024/02/09 05:33:37;;;;;;;;;;;;;;;16.31;47.85;100181.34;5020140;28;1056;-47
2024/02/09 05:36:03;;;;;;;;;;;;;;;16.20;48.42;100185.25;5019977;28;1122;-52
2024/02/09 05:38:32;;;;;;;;;;;;;;;16.18;48.39;100187.50;5021939;28;1402;-53
2024/02/09 05:40:58;;;;;;;;;;;;;;;15.98;48.56;100178.28;5030037;28;1056;-53
2024/02/09 05:43:23;;;;;;;;;;;;;;;15.94;48.47;100173.66;5031102;28;1984;-51
2024/02/09 05:45:49;;;;;;;;;;;;;;;15.83;48.74;100172.91;5021371;28;976;-50
2024/02/09 05:48:15;;;;;;;;;;;;;;;15.75;48.87;100179.75;5031401;28;1178;-48
2024/02/09 05:50:40;;;;;;;;;;;;;;;15.54;49.42;100185.38;5035481;28;1155;-51
2024/02/09 05:53:07;;;;;;;;;;;;;;;15.55;49.33;100192.47;5020268;28;1091;-51
2024/02/09 05:55:33;;;;;;;;;;;;;;;15.67;49.09;100203.09;5023592;28;1035;-51
2024/02/09 05:58:00;;;;;;;;;;;;;;;17.21;45.55;100200.34;5028559;28;1059;-51
2024/02/09 06:00:25;;;;;;;;;;;;;;;17.02;45.68;100201.06;5020735;28;1987;-50
2024/02/09 06:02:52;;;;;;;;;;;;;;;16.39;47.33;100201.88;5019208;28;1906;-51
2024/02/09 06:05:18;;;;;;;;;;;;;;;16.11;48.13;100217.16;5023658;28;1000;-50
2024/02/09 06:07:43;;;;;;;;;;;;;;;15.83;48.41;100216.78;5028062;28;1034;-53
2024/02/09 06:10:09;;;;;;;;;;;;;;;15.69;49.04;100219.28;5023118;28;997;-50
2024/02/09 06:12:35;;;;;;;;;;;;;;;15.59;49.14;100216.59;5038771;28;1174;-48
2024/02/09 06:15:00;;;;;;;;;;;;;;;15.59;49.24;100214.66;5025335;28;1007;-49
2024/02/09 06:17:28;;;;;;;;;;;;;;;16.36;47.37;100219.72;5028134;28;1091;-48
2024/02/09 06:19:54;;;;;;;;;;;;;;;17.43;44.64;100211.63;5019808;28;1028;-51
2024/02/09 06:22:19;;;;;;;;;;;;;;;16.43;47.23;100214.72;5019347;28;1055;-50
2024/02/09 06:24:45;;;;;;;;;;;;;;;16.05;47.91;100213.63;5019406;28;1987;-49
2024/02/09 06:27:11;;;;;;;;;;;;;;;15.82;48.65;100213.22;5019616;28;1333;-52
2024/02/09 06:29:38;;;;;;;;;;;;;;;15.64;48.93;100211.91;5023564;28;2089;-50
2024/02/09 06:32:06;;;;;;;;;;;;;;;15.53;49.08;100215.78;5021018;28;1317;-50
2024/02/09 06:34:31;;;;;;;;;;;;;;;15.55;49.35;100219.06;5028643;28;1268;-47
2024/02/09 06:36:58;;;;;;;;;;;;;;;17.08;45.62;100229.28;5025982;28;1064;-48
2024/02/09 06:39:24;;;;;;;;;;;;;;;16.84;45.76;100226.47;5023210;28;1020;-45
2024/02/09 06:41:49;;;;;;;;;;;;;;;16.28;47.46;100220.31;5019017;28;1140;-47
2024/02/09 06:44:15;;;;;;;;;;;;;;;15.96;48.09;100221.63;5029285;28;1909;-48
2024/02/09 06:46:41;;;;;;;;;;;;;;;15.80;48.40;100220.09;5018742;28;1093;-44
2024/02/09 06:49:06;;;;;;;;;;;;;;;15.63;49.14;100221.22;5018807;28;1039;-45
2024/02/09 06:51:32;;;;;;;;;;;;;;;15.51;49.16;100228.94;5025822;28;1073;-45
2024/02/09 06:53:57;;;;;;;;;;;;;;;15.91;48.71;100232.63;5025309;28;991;-45
2024/02/09 06:56:23;;;;;;;;;;;;;;;17.35;45.19;100233.41;5019131;28;1132;-49
2024/02/09 06:58:51;;;;;;;;;;;;;;;16.85;46.10;100228.94;5017675;28;2127;-48
2024/02/09 07:01:18;;;;;;;;;;;;;;;16.23;47.49;100226.69;5022937;28;1040;-46
2024/02/09 07:03:44;;;;;;;;;;;;;;;15.99;48.13;100234.78;5018963;28;1906;-44
2024/02/09 07:06:10;;;;;;;;;;;;;;;15.75;48.70;100226.34;5027489;28;1116;-47
2024/02/09 07:08:42;;;;;;;;;;;;;;;15.68;48.78;100218.47;5021962;28;1040;-49
2024/02/09 07:11:08;;;;;;;;;;;;;;;15.56;49.14;100213.28;5018061;28;1032;-44
2024/02/09 07:13:34;;;;;;;;;;;;;;;16.07;48.10;100217.75;5021563;28;1059;-45
2024/02/09 07:16:02;;;;;;;;;;;;;;;17.38;44.99;100219.91;5029310;28;1513;-44
2024/02/09 07:18:31;;;;;;;;;;;;;;;16.67;46.25;100205.75;5023514;28;1063;-47
2024/02/09 07:20:56;;;;;;;;;;;;;;;16.13;47.86;100206.72;5018398;28;1290;-48
2024/02/09 07:23:22;;;;;;;;;;;;;;;15.92;48.60;100209.56;5018743;28;1991;-45
2024/02/09 07:25:47;;;;;;;;;;;;;;;15.70;48.75;100210.75;5030937;28;1128;-43
2024/02/09 07:28:13;;;;;;;;;;;;;;;15.56;49.33;100201.53;5029327;28;1082;-46
2024/02/09 07:30:39;;;;;;;;;;;;;;;15.84;48.61;100191.00;5025993;28;1915;-44
2024/02/09 07:33:04;;;;;;;;;;;;;;;17.25;45.18;100188.47;5028021;28;1372;-43
2024/02/09 07:35:30;;;;;;;;;;;;;;;16.74;46.38;100189.75;5032188;28;1025;-45
2024/02/09 07:37:57;;;;;;;;;;;;;;;16.08;47.92;100189.19;5027434;28;1271;-47
2024/02/09 07:40:23;;;;;;;;;;;;;;;15.95;48.15;100187.09;5031325;28;1103;-46
2024/02/09 07:42:48;;;;;;;;;;;;;;;15.77;48.61;100188.53;5022457;28;1903;-46
2024/02/09 07:45:16;;;;;;;;;;;;;;;15.57;49.05;100182.06;5030957;28;960;-42
2024/02/09 07:47:44;;;;;;;;;;;;;;;16.23;47.85;100179.22;5021183;28;1115;-48
2024/02/09 07:50:10;;;;;;;;;;;;;;;17.49;44.68;100173.03;5021920;28;1241;-43
2024/02/09 07:52:38;;;;;;;;;;;;;;;16.63;46.45;100190.16;5017167;28;1096;-46
2024/02/09 07:55:04;;;;;;;;;;;;;;;16.18;47.80;100187.50;5017095;28;1107;-45
2024/02/09 07:57:30;;;;;;;;;;;;;;;15.96;48.16;100185.97;5023943;28;1044;-45
2024/02/09 07:59:55;;;;;;;;;;;;;;;15.77;48.58;100187.69;5023736;28;2120;-46
2024/02/09 08:02:21;;;;;;;;;;;;;;;15.66;48.92;100190.50;5023391;28;1158;-49
2024/02/09 08:04:46;;;;;;;;;;;;;;;15.55;48.98;100186.16;5023410;28;1910;-47
2024/02/09 08:07:14;;;;;;;;;;;;;;;16.57;47.03;100183.88;5017113;28;1000;-46
2024/02/09 08:09:39;;;;;;;;;;;;;;;17.44;44.58;100185.75;5016778;28;1031;-46
2024/02/09 08:12:05;;;;;;;;;;;;;;;16.45;47.02;100180.69;5017143;28;1100;-45
2024/02/09 08:14:36;;;;;;;;;;;;;;;16.07;48.00;100184.00;5029799;28;1116;-47
2024/02/09 08:17:03;;;;;;;;;;;;;;;15.82;48.69;100187.72;5028990;28;1043;-47
2024/02/09 08:19:29;;;;;;;;;;;;;;;15.75;48.82;100190.72;5028909;28;1346;-47
2024/02/09 08:21:55;;;;;;;;;;;;;;;15.59;49.26;100181.75;5025403;28;1345;-47
2024/02/09 08:24:21;;;;;;;;;;;;;;;16.62;46.71;100181.13;5022965;28;1913;-42
2024/02/09 08:26:46;;;;;;;;;;;;;;;17.41;44.73;100171.78;5031458;28;1179;-45
2024/02/09 08:29:12;;;;;;;;;;;;;;;16.45;47.07;100181.50;5031790;28;1985;-46
2024/02/09 08:31:38;;;;;;;;;;;;;;;16.07;48.10;100187.56;5030188;28;1045;-46
2024/02/09 08:34:03;;;;;;;;;;;;;;;15.96;48.20;100174.19;5016416;28;1217;-44
2024/02/09 08:36:29;;;;;;;;;;;;;;;15.81;48.46;100164.97;5029542;28;1379;-47
2024/02/09 08:38:54;;;;;;;;;;;;;;;15.63;49.21;100171.06;5025466;28;1119;-44
2024/02/09 08:41:20;;;;;;;;;;;;;;;15.57;49.26;100173.00;5028060;28;1238;-45
2024/02/09 08:43:46;;;;;;;;;;;;;;;15.47;49.48;100175.78;5022342;28;1909;-46
2024/02/09 08:46:11;;;;;;;;;;;;;;;16.94;45.83;100176.97;5029144;28;1053;-44
2024/02/09 08:48:37;;;;;;;;;;;;;;;17.29;45.00;100180.44;5020853;28;1055;-45
2024/02/09 08:51:02;;;;;;;;;;;;;;;16.30;47.50;100182.47;5016292;28;1174;-45
2024/02/09 08:53:28;;;;;;;;;;;;;;;16.10;47.77;100174.38;5022994;28;1139;-45
2024/02/09 08:55:54;;;;;;;;;;;;;;;15.87;48.26;100191.25;5026265;28;1103;-45
2024/02/09 08:58:20;;;;;;;;;;;;;;;15.73;48.61;100171.00;5016554;28;1306;-45
2024/02/09 09:00:45;;;;;;;;;;;;;;;15.67;48.84;100159.25;5021598;28;2257;-48
2024/02/09 09:03:11;;;;;;;;;;;;;;;15.68;49.04;100163.66;5021747;28;1976;-44
2024/02/09 09:05:36;;;;;;;;;;;;;;;17.19;45.21;100166.81;5015306;28;1336;-48
2024/02/09 09:08:03;;;;;;;;;;;;;;;16.88;45.80;100167.13;5033450;28;1098;-48
2024/02/09 09:10:28;;;;;;;;;;;;;;;16.33;47.32;100170.91;5032769;28;1285;-45
2024/02/09 09:12:54;;;;;;;;;;;;;;;15.99;48.14;100163.50;5020744;28;1115;-50
2024/02/09 09:15:19;;;;;;;;;;;;;;;15.82;48.42;100157.56;5035988;28;1336;-48
2024/02/09 09:17:47;;;;;;;;;;;;;;;15.71;48.96;100160.34;5035628;28;1066;-47
2024/02/09 09:20:12;;;;;;;;;;;;;;;15.60;49.04;100164.22;5018069;28;1320;-48
2024/02/09 09:22:38;;;;;;;;;;;;;;;16.87;46.07;100152.59;5024802;28;1044;-48
2024/02/09 09:25:06;;;;;;;;;;;;;;;17.22;45.00;100147.00;5015737;28;1910;-47
2024/02/09 09:27:34;;;;;;;;;;;;;;;16.41;47.07;100153.84;5034404;28;1004;-45
2024/02/09 09:30:00;;;;;;;;;;;;;;;16.08;47.94;100153.53;5022342;28;2025;-46
2024/02/09 09:32:25;;;;;;;;;;;;;;;15.88;48.34;100157.25;5022561;28;1134;-47
2024/02/09 09:34:51;;;;;;;;;;;;;;;15.75;48.73;100146.84;5029339;28;1489;-48
2024/02/09 09:37:16;;;;;;;;;;;;;;;15.57;49.28;100140.94;5028952;28;934;-47
2024/02/09 09:39:42;;;;;;;;;;;;;;;16.56;46.93;100138.34;5024684;28;1030;-49
2024/02/09 09:42:07;;;;;;;;;;;;;;;17.31;44.93;100137.00;5015567;28;1005;-50
2024/02/09 09:44:33;;;;;;;;;;;;;;;16.44;47.11;100130.50;5024389;28;1910;-48
2024/02/09 09:46:58;;;;;;;;;;;;;;;16.06;47.83;100127.50;5019445;28;1039;-45
2024/02/09 09:49:26;;;;;;;;;;;;;;;15.91;48.27;100122.97;5017991;28;1056;-43
2024/02/09 09:51:52;;;;;;;;;;;;;;;15.74;49.03;100112.34;5019107;28;883;-46
2024/02/09 09:54:20;;;;;;;;;;;;;;;15.59;49.29;100110.50;5028595;28;985;-44
2024/02/09 09:56:45;;;;;;;;;;;;;;;16.45;47.14;100123.88;5028992;28;1139;-46
2024/02/09 09:59:11;;;;;;;;;;;;;;;17.55;44.65;100103.97;5022296;28;2106;-48
2024/02/09 10:01:38;;;;;;;;;;;;;;;16.64;46.43;100110.25;5020614;28;1025;-46
2024/02/09 10:04:04;;;;;;;;;;;;;;;16.20;47.78;100106.56;5026583;28;1919;-46
2024/02/09 10:06:30;;;;;;;;;;;;;;;15.95;48.22;100106.75;5018134;28;957;-47
2024/02/09 10:08:55;;;;;;;;;;;;;;;15.76;48.71;100109.31;5023805;28;1056;-48
2024/02/09 10:11:21;;;;;;;;;;;;;;;15.62;49.00;100107.19;5035628;28;1430;-46
2024/02/09 10:13:49;;;;;;;;;;;;;;;15.53;49.20;100097.97;5031173;28;1110;-48
2024/02/09 10:16:14;;;;;;;;;;;;;;;16.61;47.00;100083.41;5032676;28;1071;-44
2024/02/09 10:18:41;;;;;;;;;;;;;;;17.53;44.43;100081.47;5020704;28;1303;-44
2024/02/09 10:21:11;;;;;;;;;;;;;;;16.65;46.60;100076.22;5034484;28;1030;-45
2024/02/09 10:23:36;;;;;;;;;;;;;;;16.11;47.75;100066.31;5026849;28;1973;-43
2024/02/09 10:26:03;;;;;;;;;;;;;;;16.01;48.25;100056.25;5022882;28;1085;-47
2024/02/09 10:28:29;;;;;;;;;;;;;;;15.85;48.58;100066.50;5027069;28;1997;-47
2024/02/09 10:30:55;;;;;;;;;;;;;;;15.58;49.08;100054.06;5019033;28;1010;-46
2024/02/09 10:33:22;;;;;;;;;;;;;;;15.52;49.36;100055.22;5018883;28;1051;-46
2024/02/09 10:35:47;;;;;;;;;;;;;;;16.16;47.98;100052.53;5020863;28;1344;-49
2024/02/09 10:38:13;;;;;;;;;;;;;;;17.45;44.68;100044.47;5029150;28;1305;-45
2024/02/09 10:40:38;;;;;;;;;;;;;;;16.91;45.71;100040.25;5031289;28;1254;-49
2024/02/09 10:43:04;;;;;;;;;;;;;;;16.38;47.04;100030.94;5036934;28;1988;-45
2024/02/09 10:45:32;;;;;;;;;;;;;;;16.11;48.08;100036.16;5024405;28;1325;-45
2024/02/09 10:47:58;;;;;;;;;;;;;;;15.94;48.18;100022.88;5037717;28;1012;-45
2024/02/09 10:50:23;;;;;;;;;;;;;;;15.78;48.79;100022.13;5023558;28;1305;-45
2024/02/09 10:52:50;;;;;;;;;;;;;;;15.68;49.07;100021.13;5027401;28;1290;-44
2024/02/09 10:55:22;;;;;;;;;;;;;;;15.62;49.30;100011.28;5018295;28;1411;-46
2024/02/09 10:57:50;;;;;;;;;;;;;;;17.13;45.64;100001.25;5028908;28;1031;-45
2024/02/09 11:00:16;;;;;;;;;;;;;;;17.04;45.59;100001.09;5030995;28;1966;-46
2024/02/09 11:02:43;;;;;;;;;;;;;;;16.42;46.99;99995.50;5026090;28;1051;-52
2024/02/09 11:05:11;;;;;;;;;;;;;;;16.03;47.94;99989.06;5024401;28;1905;-46
2024/02/09 11:07:37;;;;;;;;;;;;;;;15.92;48.32;99987.47;5022749;28;1080;-47
2024/02/09 11:10:07;;;;;;;;;;;;;;;15.79;48.62;99985.41;5017808;28;1064;-45
2024/02/09 11:12:32;;;;;;;;;;;;;;;15.68;49.08;99988.22;5016739;28;1074;-46
2024/02/09 11:14:58;;;;;;;;;;;;;;;15.80;48.67;99984.31;5021067;28;1003;-44
2024/02/09 11:17:23;;;;;;;;;;;;;;;17.23;45.34;99970.06;5020688;28;1155;-50
2024/02/09 11:19:49;;;;;;;;;;;;;;;17.02;45.43;99978.56;5016314;28;1274;-45
2024/02/09 11:22:14;;;;;;;;;;;;;;;16.34;47.12;99965.94;5016214;28;1239;-48
2024/02/09 11:24:44;;;;;;;;;;;;;;;16.11;48.08;99962.09;5017644;28;1902;-47
2024/02/09 11:27:10;;;;;;;;;;;;;;;15.91;48.32;99959.25;5027163;28;992;-46
2024/02/09 11:29:35;;;;;;;;;;;;;;;15.82;48.48;99962.91;5021182;28;2049;-50
2024/02/09 11:32:05;;;;;;;;;;;;;;;15.67;48.79;99964.66;5026844;28;1060;-49
2024/02/09 11:34:32;;;;;;;;;;;;;;;16.07;48.20;99959.94;5024525;28;1024;-47
2024/02/09 11:37:01;;;;;;;;;;;;;;;17.45;44.98;99947.47;5027353;28;1020;-45
2024/02/09 11:39:27;;;;;;;;;;;;;;;16.88;46.10;99955.69;5020840;28;1322;-49
2024/02/09 11:41:52;;;;;;;;;;;;;;;16.33;47.19;99951.41;5022513;28;1132;-47
2024/02/09 11:44:18;;;;;;;;;;;;;;;16.02;48.12;99954.50;5020868;28;1902;-48
2024/02/09 11:46:44;;;;;;;;;;;;;;;15.93;48.10;99949.94;5020277;28;1280;-50
2024/02/09 11:49:11;;;;;;;;;;;;;;;15.83;48.65;99957.13;5019234;28;1091;-51
2024/02/09 11:51:37;;;;;;;;;;;;;;;15.68;48.77;99955.34;5024789;28;1107;-46
2024/02/09 11:54:09;;;;;;;;;;;;;;;15.65;49.14;99957.81;5020991;28;1078;-48
2024/02/09 11:56:35;;;;;;;;;;;;;;;17.06;45.79;99959.59;5031149;28;1111;-47
2024/02/09 11:59:03;;;;;;;;;;;;;;;17.05;45.34;99953.25;5021619;28;2206;-48
2024/02/09 12:01:29;;;;;;;;;;;;;;;16.28;47.29;99962.44;5028332;28;1028;-50
2024/02/09 12:03:54;;;;;;;;;;;;;;;16.05;47.75;99961.34;5026339;28;1906;-47
2024/02/09 12:06:23;;;;;;;;;;;;;;;15.86;48.28;99962.03;5029808;28;1110;-50
2024/02/09 12:08:52;;;;;;;;;;;;;;;15.72;48.51;99972.84;5028431;28;1358;-47
2024/02/09 12:11:20;;;;;;;;;;;;;;;15.62;49.10;99983.88;5016624;28;1432;-49
2024/02/09 12:13:46;;;;;;;;;;;;;;;16.53;46.71;99977.00;5031549;28;1266;-48
2024/02/09 12:16:12;;;;;;;;;;;;;;;17.43;44.36;99969.75;5021416;28;997;-51
2024/02/09 12:18:41;;;;;;;;;;;;;;;16.52;46.71;99975.34;5015272;28;1164;-51
2024/02/09 12:21:06;;;;;;;;;;;;;;;16.21;47.51;99979.25;5024621;28;1036;-49
2024/02/09 12:23:31;;;;;;;;;;;;;;;15.98;48.15;99961.66;5021728;28;1971;-50
2024/02/09 12:25:57;;;;;;;;;;;;;;;15.87;48.26;99968.34;5016948;28;1063;-47
2024/02/09 12:28:23;;;;;;;;;;;;;;;15.78;48.58;99965.41;5025072;28;1132;-48
2024/02/09 12:30:51;;;;;;;;;;;;;;;15.65;48.91;99969.59;5024503;28;2251;-50
2024/02/09 12:33:17;;;;;;;;;;;;;;;16.59;46.68;99956.59;5026750;28;1005;-47
2024/02/09 12:35:43;;;;;;;;;;;;;;;17.63;44.03;99951.28;5032344;28;1257;-48
2024/02/09 12:38:09;;;;;;;;;;;;;;;16.70;45.93;99955.34;5026845;28;1290;-49
2024/02/09 12:40:35;;;;;;;;;;;;;;;16.28;47.23;99954.22;5048691;28;1301;-50
2024/02/09 12:43:01;;;;;;;;;;;;;;;16.13;47.39;99959.88;5035862;28;1906;-49
2024/02/09 12:45:28;;;;;;;;;;;;;;;15.89;47.96;99963.38;5023146;28;1337;-51
2024/02/09 12:47:54;;;;;;;;;;;;;;;15.77;48.57;99976.63;5025179;28;1288;-49
2024/02/09 12:50:20;;;;;;;;;;;;;;;15.70;48.61;99971.50;5021031;28;1139;-51
2024/02/09 12:52:51;;;;;;;;;;;;;;;15.52;48.95;99971.06;5022205;28;1289;-52
2024/02/09 12:55:19;;;;;;;;;;;;;;;16.83;45.94;99985.94;5022037;28;943;-51
2024/02/09 12:57:46;;;;;;;;;;;;;;;17.38;44.53;99975.31;5014396;28;1204;-50
2024/02/09 13:00:13;;;;;;;;;;;;;;;16.47;46.63;99984.47;5022798;28;2255;-45
2024/02/09 13:02:38;;;;;;;;;;;;;;;16.13;47.53;99970.84;5028384;28;1143;-49
2024/02/09 13:05:04;;;;;;;;;;;;;;;15.89;48.17;99975.19;5018964;28;1906;-45
2024/02/09 13:07:30;;;;;;;;;;;;;;;15.79;48.55;99977.16;5028510;28;1269;-46
2024/02/09 13:09:56;;;;;;;;;;;;;;;15.66;48.90;99975.91;5028748;28;1163;-48
2024/02/09 13:12:24;;;;;;;;;;;;;;;15.55;49.08;99977.91;5016619;28;1115;-49
2024/02/09 13:14:49;;;;;;;;;;;;;;;16.49;47.02;99981.44;5016304;28;1022;-48
2024/02/09 13:17:16;;;;;;;;;;;;;;;17.57;44.14;99963.47;5019502;28;1345;-47
2024/02/09 13:19:41;;;;;;;;;;;;;;;16.65;46.08;99977.41;5035904;28;1099;-50
2024/02/09 13:22:08;;;;;;;;;;;;;;;16.21;47.07;99971.00;5022802;28;1355;-50
2024/02/09 13:24:33;;;;;;;;;;;;;;;15.99;47.87;99968.78;5032191;28;1890;-50
2024/02/09 13:26:59;;;;;;;;;;;;;;;15.82;48.45;99974.72;5035014;28;1048;-49
2024/02/09 13:29:25;;;;;;;;;;;;;;;15.69;48.67;99978.88;5023313;28;1171;-51
2024/02/09 13:31:51;;;;;;;;;;;;;;;15.63;48.64;99982.78;5024750;28;1030;-51
2024/02/09 13:34:17;;;;;;;;;;;;;;;16.37;47.17;99981.84;5018999;28;1342;-49
2024/02/09 13:36:43;;;;;;;;;;;;;;;17.55;44.35;99969.28;5035894;28;1301;-49
2024/02/09 13:39:08;;;;;;;;;;;;;;;16.66;46.11;99978.19;5022691;28;1139;-50
2024/02/09 13:41:34;;;;;;;;;;;;;;;16.21;47.29;99981.19;5025216;28;1191;-50
2024/02/09 13:43:59;;;;;;;;;;;;;;;16.01;47.84;99969.31;5016792;28;1980;-46
2024/02/09 13:46:25;;;;;;;;;;;;;;;15.89;48.01;99974.34;5029136;28;1400;-50
2024/02/09 13:48:51;;;;;;;;;;;;;;;15.69;48.64;99973.41;5026759;28;1092;-48
2024/02/09 13:51:17;;;;;;;;;;;;;;;15.66;48.94;99984.13;5039564;28;1085;-52
2024/02/09 13:53:43;;;;;;;;;;;;;;;15.84;48.34;99996.34;5026680;28;1055;-49
2024/02/09 13:56:08;;;;;;;;;;;;;;;17.28;44.85;99979.03;5026155;28;1227;-46
2024/02/09 13:58:35;;;;;;;;;;;;;;;17.06;45.32;99985.13;5025657;28;1051;-46
2024/02/09 14:01:00;;;;;;;;;;;;;;;16.35;47.04;99987.59;5023309;28;2033;-50
2024/02/09 14:03:26;;;;;;;;;;;;;;;16.03;47.74;99978.06;5022642;28;1973;-50
2024/02/09 14:05:51;;;;;;;;;;;;;;;15.89;48.15;99979.84;5027627;28;1157;-45
2024/02/09 14:08:19;;;;;;;;;;;;;;;15.70;48.59;99986.00;5019870;28;1084;-48
2024/02/09 14:10:46;;;;;;;;;;;;;;;15.61;48.80;99978.69;5021104;28;1312;-48
2024/02/09 14:13:11;;;;;;;;;;;;;;;16.16;47.62;99975.75;5039148;28;1004;-45
2024/02/09 14:15:37;;;;;;;;;;;;;;;17.44;44.67;99973.31;5031762;28;1124;-51
2024/02/09 14:18:04;;;;;;;;;;;;;;;16.76;46.07;99976.16;5033039;28;1326;-50
2024/02/09 14:20:30;;;;;;;;;;;;;;;16.22;47.18;99969.91;5024252;28;1306;-49
2024/02/09 14:22:59;;;;;;;;;;;;;;;16.02;47.64;99965.47;5020839;28;1275;-51
2024/02/09 14:25:25;;;;;;;;;;;;;;;15.81;48.47;99955.78;5021880;28;1040;-46
2024/02/09 14:27:52;;;;;;;;;;;;;;;15.68;48.77;99969.03;5028227;28;1612;-47
2024/02/09 14:30:18;;;;;;;;;;;;;;;15.65;48.74;99963.31;5022067;28;2708;-49
2024/02/09 14:32:44;;;;;;;;;;;;;;;17.02;45.52;99964.84;5020633;28;975;-46
2024/02/09 14:35:10;;;;;;;;;;;;;;;17.20;44.78;99954.16;5023352;28;1187;-51